createdAt,value
2023-01-28T00:00:55.978Z,77.24
2023-01-28T00:03:23.107Z,77.06
2023-01-28T00:05:50.129Z,77.13
2023-01-28T00:08:17.082Z,77.20
2023-01-28T00:10:44.053Z,77.16
2023-01-28T00:13:14.911Z,77.01
2023-01-28T00:15:43.109Z,77.24
2023-01-28T00:18:10.464Z,77.09
2023-01-28T00:20:38.499Z,76.80
2023-01-28T00:23:05.855Z,76.76
2023-01-28T00:25:33.119Z,77.00
2023-01-28T00:28:03.079Z,76.92
2023-01-28T00:30:33.213Z,76.69
2023-01-28T00:33:00.233Z,76.83
2023-01-28T00:35:27.640Z,76.87
2023-01-28T00:37:57.395Z,76.86
2023-01-28T00:40:24.333Z,76.61
2023-01-28T00:42:51.317Z,76.81
2023-01-28T00:45:18.583Z,76.74
2023-01-28T00:47:48.469Z,76.51
2023-01-28T00:50:16.791Z,76.44
2023-01-28T00:52:44.977Z,76.25
2023-01-28T00:55:12.423Z,76.52
2023-01-28T00:57:39.695Z,76.49
2023-01-28T01:00:07.378Z,76.28
2023-01-28T01:02:34.333Z,76.48
2023-01-28T01:05:01.687Z,76.37
2023-01-28T01:07:41.709Z,76.19
2023-01-28T01:10:14.078Z,76.14
2023-01-28T01:12:41.080Z,76.01
2023-01-28T01:15:09.148Z,76.17
2023-01-28T01:17:40.528Z,75.86
2023-01-28T01:20:10.090Z,75.86
2023-01-28T01:22:37.179Z,75.71
2023-01-28T01:25:05.248Z,75.81
2023-01-28T01:27:32.639Z,75.63
2023-01-28T01:30:00.631Z,75.66
2023-01-28T01:32:35.175Z,75.67
2023-01-28T01:35:03.032Z,75.42
2023-01-28T01:37:33.362Z,75.63
2023-01-28T01:40:02.187Z,75.62
2023-01-28T01:42:30.367Z,75.32
2023-01-28T01:45:01.755Z,75.28
2023-01-28T01:47:46.580Z,75.42
2023-01-28T01:50:23.146Z,75.29
2023-01-28T01:52:51.786Z,75.19
2023-01-28T01:55:19.530Z,75.24
2023-01-28T01:57:46.462Z,75.09
2023-01-28T02:00:13.569Z,75.12
2023-01-28T02:02:44.165Z,75.20
2023-01-28T02:05:12.763Z,75.48
2023-01-28T02:07:40.121Z,75.28
2023-01-28T02:10:07.984Z,75.54
2023-01-28T02:12:36.585Z,75.32
2023-01-28T02:15:05.700Z,75.29
2023-01-28T02:17:32.642Z,75.48
2023-01-28T02:20:07.684Z,75.29
2023-01-28T02:22:58.271Z,75.44
2023-01-28T02:25:31.291Z,75.36
2023-01-28T02:28:23.843Z,75.21
2023-01-28T02:31:19.849Z,75.45
2023-01-28T02:33:58.500Z,75.42
2023-01-28T02:36:36.581Z,75.42
2023-01-28T02:39:07.465Z,75.26
2023-01-28T02:41:38.289Z,75.33
2023-01-28T02:44:05.955Z,75.37
2023-01-28T02:46:55.807Z,75.11
2023-01-28T02:49:39.893Z,75.41
2023-01-28T02:52:15.472Z,75.48
2023-01-28T02:55:00.931Z,75.45
2023-01-28T02:57:53.561Z,75.51
2023-01-28T03:00:31.374Z,75.12
2023-01-28T03:03:29.887Z,75.27
2023-01-28T03:06:06.771Z,75.19
2023-01-28T03:09:18.729Z,75.19
2023-01-28T03:12:11.741Z,75.15
2023-01-28T03:14:59.246Z,75.13
2023-01-28T03:18:26.088Z,75.09
2023-01-28T03:21:33.111Z,75.34
2023-01-28T03:24:32.622Z,75.35
2023-01-28T03:27:59.648Z,75.16
2023-01-28T03:30:55.776Z,75.29
2023-01-28T03:33:42.684Z,75.36
2023-01-28T03:36:28.552Z,75.38
2023-01-28T03:38:56.633Z,75.42
2023-01-28T03:41:25.805Z,75.32
2023-01-28T03:43:53.692Z,75.03
2023-01-28T03:46:20.838Z,75.25
2023-01-28T03:48:47.848Z,75.30
2023-01-28T03:51:15.598Z,75.24
2023-01-28T03:53:42.664Z,74.94
2023-01-28T03:56:09.678Z,75.02
2023-01-28T03:58:57.022Z,75.12
2023-01-28T04:01:24.393Z,75.07
2023-01-28T04:03:51.804Z,74.95
2023-01-28T04:06:18.803Z,74.55
2023-01-28T04:08:49.046Z,74.86
2023-01-28T04:11:15.995Z,74.91
2023-01-28T04:13:43.835Z,74.78
2023-01-28T04:16:11.934Z,74.86
2023-01-28T04:18:39.524Z,74.63
2023-01-28T04:21:06.561Z,74.59
2023-01-28T04:23:33.551Z,74.62
2023-01-28T04:26:00.519Z,74.81
2023-01-28T04:28:27.503Z,74.56
2023-01-28T04:30:54.459Z,74.53
2023-01-28T04:33:21.815Z,74.50
2023-01-28T04:35:48.713Z,74.68
2023-01-28T04:38:15.601Z,74.50
2023-01-28T04:40:42.618Z,74.72
2023-01-28T04:43:09.801Z,74.74
2023-01-28T06:04:35.629Z,74.63
2023-01-28T06:07:02.595Z,74.85
2023-01-28T06:09:29.572Z,74.50
2023-01-28T06:11:56.576Z,74.65
2023-01-28T06:14:23.705Z,74.76
2023-01-28T06:16:52.381Z,74.78
2023-01-28T06:19:19.405Z,74.76
2023-01-28T06:21:46.388Z,74.76
2023-01-28T06:24:14.267Z,74.57
2023-01-28T06:26:41.477Z,74.39
2023-01-28T06:29:08.409Z,74.58
2023-01-28T06:31:35.299Z,74.53
2023-01-28T06:34:02.492Z,74.22
2023-01-28T06:36:29.383Z,74.63
2023-01-28T06:38:56.670Z,74.25
2023-01-28T06:41:23.561Z,74.49
2023-01-28T06:43:50.455Z,74.28
2023-01-28T06:46:17.381Z,74.28
2023-01-28T06:48:44.333Z,74.29
2023-01-28T06:51:11.452Z,74.10
2023-01-28T06:53:38.370Z,74.07
2023-01-28T06:56:05.706Z,74.24
2023-01-28T06:58:32.615Z,74.45
2023-01-28T07:00:59.507Z,74.26
2023-01-28T07:03:26.401Z,73.92
2023-01-28T07:05:53.335Z,74.07
2023-01-28T07:08:20.226Z,74.46
2023-01-28T07:10:47.145Z,74.54
2023-01-28T07:13:14.126Z,74.19
2023-01-28T07:15:41.346Z,74.38
2023-01-28T07:18:08.242Z,74.20
2023-01-28T07:20:35.237Z,74.26
2023-01-28T07:23:02.116Z,74.26
2023-01-28T07:25:29.017Z,74.28
2023-01-28T07:27:55.918Z,74.12
2023-01-28T07:30:25.305Z,74.44
2023-01-28T07:32:59.612Z,74.14
2023-01-28T07:35:26.941Z,74.45
2023-01-28T07:37:57.920Z,74.35
2023-01-28T07:40:25.345Z,74.59
2023-01-28T07:42:53.935Z,74.68
2023-01-28T07:45:20.935Z,74.52
2023-01-28T07:47:55.937Z,74.54
2023-01-28T07:50:26.243Z,74.73
2023-01-28T07:52:53.772Z,74.72
2023-01-28T07:55:20.693Z,74.81
2023-01-28T07:57:54.617Z,74.82
2023-01-28T08:00:22.901Z,74.70
2023-01-28T08:02:49.885Z,74.84
2023-01-28T08:05:20.916Z,74.82
2023-01-28T08:07:48.698Z,75.01
2023-01-28T08:10:19.487Z,74.99
2023-01-28T08:12:58.897Z,74.95
2023-01-28T08:15:26.129Z,75.08
2023-01-28T08:17:57.380Z,74.97
2023-01-28T08:20:27.722Z,75.00
2023-01-28T08:22:54.900Z,74.66
2023-01-28T08:25:21.869Z,74.99
2023-01-28T08:27:48.894Z,75.08
2023-01-28T08:30:16.225Z,74.91
2023-01-28T08:32:43.676Z,74.62
2023-01-28T08:35:13.751Z,74.80
2023-01-28T08:37:43.757Z,74.88
2023-01-28T08:40:11.411Z,74.95
2023-01-28T08:42:38.419Z,75.01
2023-01-28T08:45:05.883Z,74.96
2023-01-28T08:47:32.845Z,74.86
2023-01-28T08:49:59.747Z,74.98
2023-01-28T08:52:26.668Z,74.78
2023-01-28T08:54:53.708Z,74.72
2023-01-28T08:57:20.700Z,74.75
2023-01-28T08:59:47.641Z,74.70
2023-01-28T09:02:30.215Z,74.62
2023-01-28T09:04:58.007Z,74.79
2023-01-28T09:07:24.909Z,74.64
2023-01-28T09:09:51.995Z,74.73
2023-01-28T09:12:18.889Z,74.67
2023-01-28T09:14:45.790Z,74.80
2023-01-28T09:17:12.703Z,74.74
2023-01-28T09:19:43.544Z,74.52
2023-01-28T09:22:10.961Z,74.88
2023-01-28T09:24:38.972Z,74.83
2023-01-28T09:27:06.069Z,74.38
2023-01-28T09:29:36.100Z,74.83
2023-01-28T09:32:03.047Z,74.67
2023-01-28T09:34:29.947Z,74.27
2023-01-28T09:36:57.256Z,73.68
2023-01-28T09:39:25.757Z,73.93
2023-01-28T09:42:09.853Z,73.70
2023-01-28T09:44:55.405Z,73.39
2023-01-28T09:47:47.162Z,72.92
2023-01-28T09:50:35.756Z,72.81
2023-01-28T09:53:23.377Z,72.12
2023-01-28T09:56:14.674Z,72.16
2023-01-28T09:58:44.565Z,71.91
2023-01-28T10:01:26.702Z,71.69
2023-01-28T10:04:23.266Z,71.71
2023-01-28T10:06:54.376Z,71.76
2023-01-28T10:09:30.269Z,71.93
2023-01-28T10:11:59.940Z,71.65
2023-01-28T10:15:04.749Z,71.62
2023-01-28T10:17:34.249Z,71.55
2023-01-28T10:20:25.966Z,71.00
2023-01-28T10:23:02.669Z,71.07
2023-01-28T10:25:31.174Z,71.22
2023-01-28T10:27:58.076Z,70.83
2023-01-28T10:30:26.660Z,70.88
2023-01-28T10:33:01.848Z,70.81
2023-01-28T10:35:34.258Z,70.70
2023-01-28T10:38:02.674Z,70.47
2023-01-28T10:40:29.584Z,70.14
2023-01-28T10:42:56.479Z,70.06
2023-01-28T10:45:37.588Z,69.86
2023-01-28T10:48:08.911Z,70.11
2023-01-28T10:50:35.911Z,69.81
2023-01-28T10:53:04.917Z,69.69
2023-01-28T10:55:58.014Z,69.63
2023-01-28T10:58:25.918Z,69.33
2023-01-28T11:00:57.840Z,69.54
2023-01-28T11:03:27.441Z,69.48
2023-01-28T11:05:56.238Z,69.33
2023-01-28T11:08:28.992Z,69.20
2023-01-28T11:10:57.301Z,69.34
2023-01-28T11:13:29.991Z,69.28
2023-01-28T11:15:59.846Z,69.14
2023-01-28T11:18:29.517Z,69.06
2023-01-28T11:20:58.391Z,68.76
2023-01-28T11:23:30.355Z,68.97
2023-01-28T11:26:17.867Z,69.13
2023-01-28T11:28:44.834Z,69.17
2023-01-28T11:31:14.547Z,69.09
2023-01-28T11:34:00.049Z,68.97
2023-01-28T11:36:31.368Z,69.08
2023-01-28T11:39:16.471Z,69.20
2023-01-28T11:41:43.811Z,69.25
2023-01-28T11:44:11.107Z,69.10
2023-01-28T11:47:04.365Z,69.14
2023-01-28T11:49:53.387Z,69.12
2023-01-28T11:53:05.133Z,68.99
2023-01-28T11:56:12.814Z,68.77
2023-01-28T11:58:43.695Z,68.80
2023-01-28T12:01:13.002Z,68.85
2023-01-28T12:03:56.007Z,69.05
2023-01-28T12:06:51.809Z,68.82
2023-01-28T12:09:33.434Z,68.77
2023-01-28T12:12:12.610Z,68.64
2023-01-28T12:14:58.313Z,68.62
2023-01-28T12:17:49.918Z,69.05
2023-01-28T12:20:29.851Z,69.02
2023-01-28T12:23:03.074Z,68.96
2023-01-28T12:25:41.105Z,69.17
2023-01-28T12:28:31.073Z,68.99
2023-01-28T12:31:19.742Z,69.05
2023-01-28T12:34:20.459Z,69.06
2023-01-28T12:36:57.204Z,69.00
2023-01-28T12:39:42.444Z,69.15
2023-01-28T12:42:34.233Z,69.06
2023-01-28T12:45:17.275Z,69.21
2023-01-28T12:47:50.269Z,69.24
2023-01-28T12:50:21.728Z,69.21
2023-01-28T12:52:55.484Z,69.15
2023-01-28T12:55:41.669Z,69.31
2023-01-28T12:58:23.095Z,69.31
2023-01-28T13:00:51.927Z,69.46
2023-01-28T13:03:30.684Z,69.66
2023-01-28T13:06:02.853Z,69.44
2023-01-28T13:08:29.928Z,69.68
2023-01-28T13:11:01.100Z,69.64
2023-01-28T13:13:36.175Z,69.52
2023-01-28T13:16:04.161Z,69.60
2023-01-28T13:18:40.131Z,69.58
2023-01-28T13:21:10.171Z,69.58
2023-01-28T13:23:43.790Z,69.48
2023-01-28T13:26:19.526Z,69.52
2023-01-28T13:28:47.515Z,69.54
2023-01-28T13:31:18.827Z,69.69
2023-01-28T13:33:49.644Z,69.73
2023-01-28T13:36:21.793Z,69.79
2023-01-28T13:38:49.028Z,69.74
2023-01-28T13:41:15.992Z,69.86
2023-01-28T13:43:43.090Z,69.99
2023-01-28T13:46:26.465Z,69.84
2023-01-28T13:48:54.814Z,69.74
2023-01-28T13:51:31.275Z,69.86
2023-01-28T13:54:07.391Z,69.74
2023-01-28T13:56:59.290Z,69.69
2023-01-28T13:59:35.239Z,69.58
2023-01-28T14:02:21.422Z,69.56
2023-01-28T14:05:09.923Z,69.58
2023-01-28T14:08:13.968Z,69.79
2023-01-28T14:10:43.882Z,69.93
2023-01-28T14:13:38.270Z,69.91
2023-01-28T14:16:12.902Z,69.57
2023-01-28T14:18:43.123Z,69.92
2023-01-28T14:21:17.828Z,69.70
2023-01-28T14:23:49.537Z,69.78
2023-01-28T14:26:19.282Z,69.53
2023-01-28T14:28:55.172Z,70.04
2023-01-28T14:31:34.230Z,69.88
2023-01-28T14:34:20.436Z,69.79
2023-01-28T14:36:47.479Z,69.71
2023-01-28T14:39:28.361Z,69.71
2023-01-28T14:41:59.300Z,70.02
2023-01-28T14:44:38.996Z,69.84
2023-01-28T14:48:06.102Z,70.03
2023-01-28T14:51:19.141Z,70.02
2023-01-28T14:54:13.942Z,69.87
2023-01-28T14:57:24.749Z,69.98
2023-01-28T15:00:08.150Z,69.83
2023-01-28T15:02:35.270Z,69.91
2023-01-28T15:05:21.678Z,69.91
2023-01-28T15:07:49.597Z,69.61
2023-01-28T15:10:32.817Z,69.75
2023-01-28T15:13:10.094Z,69.40
2023-01-28T15:15:41.861Z,69.39
2023-01-28T15:18:18.992Z,69.63
2023-01-28T15:20:47.915Z,69.82
2023-01-28T15:25:44.562Z,69.80
2023-01-28T15:28:28.235Z,69.95
2023-01-28T15:30:55.350Z,69.95
2023-01-28T15:33:24.109Z,69.62
2023-01-28T15:35:53.676Z,69.25
2023-01-28T15:38:21.769Z,69.86
2023-01-28T15:41:00.878Z,69.55
2023-01-28T15:43:37.432Z,69.70
2023-01-28T15:46:11.583Z,69.50
2023-01-28T15:48:38.477Z,69.42
2023-01-28T15:51:06.828Z,69.38
2023-01-28T15:53:36.072Z,69.60
2023-01-28T15:56:12.019Z,69.34
2023-01-28T15:58:41.912Z,69.67
2023-01-28T16:01:08.876Z,69.59
2023-01-28T16:03:39.949Z,69.44
2023-01-28T16:06:18.095Z,69.52
2023-01-28T16:08:53.590Z,69.38
2023-01-28T16:11:30.906Z,69.57
2023-01-28T16:13:58.537Z,69.49
2023-01-28T16:16:35.351Z,69.52
2023-01-28T16:19:04.378Z,69.32
2023-01-28T16:21:38.023Z,69.58
2023-01-28T16:24:25.597Z,69.55
2023-01-28T16:26:57.385Z,69.41
2023-01-28T16:29:25.388Z,69.45
2023-01-28T16:31:52.929Z,69.61
2023-01-28T16:34:19.881Z,69.75
2023-01-28T16:36:47.182Z,69.57
2023-01-28T16:39:14.156Z,69.53
2023-01-28T16:41:43.910Z,69.64
2023-01-28T16:44:14.269Z,69.67
2023-01-28T16:46:41.526Z,69.47
2023-01-28T16:49:08.763Z,69.73
2023-01-28T16:51:36.817Z,69.60
2023-01-28T16:54:04.311Z,69.69
2023-01-28T16:56:47.146Z,69.97
2023-01-28T16:59:17.099Z,69.88
2023-01-28T17:01:44.743Z,70.32
2023-01-28T17:04:13.032Z,70.21
2023-01-28T17:06:43.493Z,70.31
2023-01-28T17:09:11.999Z,70.14
2023-01-28T17:11:41.660Z,70.23
2023-01-28T17:14:09.878Z,70.28
2023-01-28T17:16:36.983Z,70.56
2023-01-28T17:19:04.227Z,70.43
2023-01-28T17:21:31.157Z,70.49
2023-01-28T17:23:59.344Z,70.53
2023-01-28T17:26:26.471Z,70.49
2023-01-28T17:28:53.657Z,70.36
2023-01-28T17:31:21.053Z,70.65
2023-01-28T17:33:48.206Z,70.79
2023-01-28T17:36:15.159Z,70.83
2023-01-28T17:38:44.577Z,70.94
2023-01-28T17:41:11.556Z,70.80
2023-01-28T17:43:38.575Z,71.13
2023-01-28T17:46:15.232Z,70.87
2023-01-28T17:48:44.057Z,71.03
2023-01-28T17:51:11.001Z,70.81
2023-01-28T17:53:38.210Z,70.98
2023-01-28T17:56:05.449Z,71.06
2023-01-28T17:58:32.465Z,71.10
2023-01-28T18:00:59.477Z,71.02
2023-01-28T18:03:26.627Z,70.97
2023-01-28T18:05:58.644Z,71.05
2023-01-28T18:08:25.977Z,71.23
2023-01-28T18:10:53.138Z,71.09
2023-01-28T18:13:20.078Z,71.08
2023-01-28T18:15:47.052Z,71.35
2023-01-28T18:18:14.053Z,70.96
2023-01-28T18:20:41.113Z,71.11
2023-01-28T18:23:08.083Z,71.32
2023-01-28T18:25:35.047Z,71.29
2023-01-28T18:28:01.962Z,71.30
2023-01-28T18:30:30.209Z,71.20
2023-01-28T18:32:57.207Z,71.59
2023-01-28T18:35:24.128Z,71.32
2023-01-28T18:37:51.012Z,71.58
2023-01-28T18:40:18.121Z,71.58
2023-01-28T18:42:45.071Z,71.82
2023-01-28T18:45:11.982Z,71.90
2023-01-28T18:47:38.917Z,71.70
2023-01-28T18:50:06.482Z,71.73
2023-01-28T18:52:33.490Z,71.82
2023-01-28T18:55:00.489Z,71.89
2023-01-28T18:57:27.394Z,72.03
2023-01-28T18:59:54.300Z,71.84
2023-01-28T19:02:21.618Z,72.19
2023-01-28T19:04:48.583Z,72.36
2023-01-28T19:07:18.495Z,72.22
2023-01-28T19:09:45.456Z,72.42
2023-01-28T19:12:12.616Z,72.17
2023-01-28T19:14:39.658Z,72.29
2023-01-28T19:17:06.565Z,72.35
2023-01-28T19:19:33.456Z,72.54
2023-01-28T19:22:03.085Z,72.58
2023-01-28T19:24:30.146Z,72.37
2023-01-28T19:26:57.383Z,72.55
2023-01-28T19:29:25.713Z,72.56
2023-01-28T19:31:53.072Z,72.52
2023-01-28T19:34:19.997Z,72.65
2023-01-28T19:36:47.022Z,72.53
2023-01-28T19:39:14.225Z,72.86
2023-01-28T19:41:41.284Z,72.55
2023-01-28T19:44:08.295Z,72.96
2023-01-28T19:46:36.199Z,72.81
2023-01-28T19:49:04.023Z,72.84
2023-01-28T19:51:31.850Z,72.93
2023-01-28T19:53:58.734Z,72.85
2023-01-28T19:56:26.878Z,73.20
2023-01-28T19:58:54.333Z,73.29
2023-01-28T20:01:29.697Z,73.15
2023-01-28T20:03:59.335Z,73.17
2023-01-28T20:06:27.778Z,73.36
2023-01-28T20:08:58.174Z,73.43
2023-01-28T20:11:25.419Z,73.57
2023-01-28T20:13:53.139Z,73.50
2023-01-28T20:16:31.233Z,73.67
2023-01-28T20:19:01.273Z,73.59
2023-01-28T20:21:29.589Z,73.79
2023-01-28T20:23:57.395Z,73.80
2023-01-28T20:26:26.493Z,73.53
2023-01-28T20:28:53.403Z,73.78
2023-01-28T20:31:20.848Z,73.69
2023-01-28T20:33:47.868Z,73.95
2023-01-28T20:36:14.984Z,73.96
2023-01-28T20:38:44.103Z,74.06
2023-01-28T20:41:13.806Z,73.96
2023-01-28T20:43:44.793Z,73.99
2023-01-28T20:46:16.949Z,74.04
2023-01-28T20:48:44.118Z,74.26
2023-01-28T20:51:14.819Z,74.17
2023-01-28T20:53:42.172Z,74.41
2023-01-28T20:56:10.044Z,74.31
2023-01-28T20:58:37.036Z,74.51
2023-01-28T21:01:05.295Z,74.56
2023-01-28T21:03:32.755Z,74.46
2023-01-28T21:06:01.061Z,74.71
2023-01-28T21:08:28.018Z,74.60
2023-01-28T21:10:55.115Z,74.96
2023-01-28T21:13:21.999Z,74.72
2023-01-28T21:15:56.021Z,74.88
2023-01-28T21:18:23.316Z,75.09
2023-01-28T21:20:50.548Z,75.08
2023-01-28T21:23:17.496Z,75.12
2023-01-28T21:25:47.062Z,75.14
2023-01-28T21:28:14.159Z,75.29
2023-01-28T21:30:41.212Z,75.21
2023-01-28T21:33:08.337Z,75.37
2023-01-28T21:35:43.720Z,75.37
2023-01-28T21:38:11.151Z,75.50
2023-01-28T21:40:38.471Z,75.42
2023-01-28T21:43:05.536Z,75.61
2023-01-28T21:45:32.499Z,75.35
2023-01-28T21:47:59.443Z,75.70
2023-01-28T21:50:26.401Z,75.53
2023-01-28T21:52:53.329Z,75.78
2023-01-28T21:55:20.661Z,75.57
2023-01-28T21:57:47.712Z,75.86
2023-01-28T22:00:15.453Z,75.53
2023-01-28T22:02:42.667Z,75.89
2023-01-28T22:05:09.903Z,75.65
2023-01-28T22:07:36.949Z,76.04
2023-01-28T22:10:04.226Z,75.95
2023-01-28T22:12:31.157Z,75.81
2023-01-28T22:14:58.085Z,75.82
2023-01-28T22:17:25.828Z,76.00
2023-01-28T22:19:52.984Z,76.04
2023-01-28T22:22:19.891Z,75.78
2023-01-28T22:24:46.867Z,75.89
2023-01-28T22:27:14.258Z,75.89
2023-01-28T22:29:41.507Z,75.88
2023-01-28T22:32:08.485Z,76.10
2023-01-28T22:34:35.426Z,75.91
2023-01-28T22:37:02.389Z,75.98
2023-01-28T22:39:29.318Z,76.16
2023-01-28T22:41:56.697Z,75.83
2023-01-28T22:44:23.592Z,76.11
2023-01-28T22:46:50.504Z,76.14
2023-01-28T22:49:17.486Z,76.15
2023-01-28T22:51:44.483Z,76.23
2023-01-28T22:54:12.038Z,76.25
2023-01-28T22:56:38.973Z,76.40
2023-01-28T22:59:06.175Z,76.22
2023-01-28T23:01:33.395Z,76.45
2023-01-28T23:04:00.492Z,76.43
2023-01-28T23:06:28.438Z,76.45
2023-01-28T23:08:56.496Z,76.35
2023-01-28T23:11:28.442Z,76.64
2023-01-28T23:14:19.142Z,76.66
2023-01-28T23:17:04.759Z,76.73
2023-01-28T23:19:50.233Z,76.65
2023-01-28T23:22:56.058Z,76.53
2023-01-28T23:25:23.578Z,76.68
2023-01-28T23:27:50.469Z,76.91
2023-01-28T23:30:18.253Z,76.65
2023-01-28T23:32:47.467Z,76.81
2023-01-28T23:35:14.557Z,76.69
2023-01-28T23:37:41.718Z,76.87
2023-01-28T23:40:09.328Z,77.01
2023-01-28T23:42:36.268Z,76.93
2023-01-28T23:45:03.494Z,77.11
2023-01-28T23:47:30.605Z,76.92
2023-01-28T23:49:57.561Z,76.84
2023-01-28T23:52:26.194Z,77.11
2023-01-28T23:54:53.177Z,76.88
2023-01-28T23:57:20.126Z,77.09
2023-01-28T23:59:47.054Z,77.32
